sensor_id;sensor_type;location;lat;lon;timestamp;pressure;altitude;pressure_sealevel;temperature;humidity
30949;BME280;17637;51.984;21.208;2023-12-20T00:00:11;99490.59;;;5.08;100.00
30949;BME280;17637;51.984;21.208;2023-12-20T00:02:43;99483.22;;;5.17;100.00
30949;BME280;17637;51.984;21.208;2023-12-20T00:05:18;99484.13;;;5.16;100.00
30949;BME280;17637;51.984;21.208;2023-12-20T00:07:50;99480.69;;;5.30;100.00
30949;BME280;17637;51.984;21.208;2023-12-20T00:10:22;99466.53;;;5.22;100.00
30949;BME280;17637;51.984;21.208;2023-12-20T00:12:54;99468.78;;;5.14;100.00
30949;BME280;17637;51.984;21.208;2023-12-20T00:15:26;99476.63;;;5.25;100.00
30949;BME280;17637;51.984;21.208;2023-12-20T00:17:57;99472.72;;;5.20;100.00
30949;BME280;17637;51.984;21.208;2023-12-20T00:20:29;99461.75;;;5.31;100.00
30949;BME280;17637;51.984;21.208;2023-12-20T00:23:01;99459.41;;;5.13;100.00
30949;BME280;17637;51.984;21.208;2023-12-20T00:25:34;99456.75;;;5.28;100.00
30949;BME280;17637;51.984;21.208;2023-12-20T00:28:06;99451.88;;;5.23;100.00
30949;BME280;17637;51.984;21.208;2023-12-20T00:30:38;99457.50;;;5.30;100.00
30949;BME280;17637;51.984;21.208;2023-12-20T00:33:10;99459.53;;;5.24;100.00
30949;BME280;17637;51.984;21.208;2023-12-20T00:35:42;99415.47;;;5.02;100.00
30949;BME280;17637;51.984;21.208;2023-12-20T00:38:14;99454.72;;;5.33;100.00
30949;BME280;17637;51.984;21.208;2023-12-20T00:40:46;99457.16;;;5.21;100.00
30949;BME280;17637;51.984;21.208;2023-12-20T00:43:18;99428.44;;;5.00;100.00
30949;BME280;17637;51.984;21.208;2023-12-20T00:45:50;99454.13;;;5.15;100.00
30949;BME280;17637;51.984;21.208;2023-12-20T00:48:22;99452.00;;;5.21;100.00
30949;BME280;17637;51.984;21.208;2023-12-20T00:50:53;99452.91;;;5.20;100.00
30949;BME280;17637;51.984;21.208;2023-12-20T00:53:26;99451.19;;;5.21;100.00
30949;BME280;17637;51.984;21.208;2023-12-20T00:55:57;99441.75;;;5.07;100.00
30949;BME280;17637;51.984;21.208;2023-12-20T00:58:30;99425.22;;;4.97;100.00
30949;BME280;17637;51.984;21.208;2023-12-20T01:01:02;99434.28;;;5.17;100.00
30949;BME280;17637;51.984;21.208;2023-12-20T01:03:34;99435.69;;;5.08;100.00
30949;BME280;17637;51.984;21.208;2023-12-20T01:06:06;99430.81;;;5.03;100.00
30949;BME280;17637;51.984;21.208;2023-12-20T01:08:38;99438.31;;;5.21;100.00
30949;BME280;17637;51.984;21.208;2023-12-20T01:11:10;99422.38;;;5.01;100.00
30949;BME280;17637;51.984;21.208;2023-12-20T01:13:42;99423.72;;;5.07;100.00
30949;BME280;17637;51.984;21.208;2023-12-20T01:16:14;99404.75;;;4.95;100.00
30949;BME280;17637;51.984;21.208;2023-12-20T01:18:45;99409.19;;;5.06;100.00
30949;BME280;17637;51.984;21.208;2023-12-20T01:21:17;99420.97;;;5.23;100.00
30949;BME280;17637;51.984;21.208;2023-12-20T01:23:49;99429.44;;;5.25;100.00
30949;BME280;17637;51.984;21.208;2023-12-20T01:26:21;99417.34;;;5.13;100.00
30949;BME280;17637;51.984;21.208;2023-12-20T01:28:53;99429.78;;;5.33;100.00
30949;BME280;17637;51.984;21.208;2023-12-20T01:31:25;99405.69;;;5.07;100.00
30949;BME280;17637;51.984;21.208;2023-12-20T01:33:58;99410.38;;;5.28;100.00
30949;BME280;17637;51.984;21.208;2023-12-20T01:36:31;99403.06;;;5.21;100.00
30949;BME280;17637;51.984;21.208;2023-12-20T01:39:03;99413.59;;;5.31;100.00
30949;BME280;17637;51.984;21.208;2023-12-20T01:41:43;99376.34;;;5.09;100.00
30949;BME280;17637;51.984;21.208;2023-12-20T01:44:15;99398.59;;;5.11;100.00
30949;BME280;17637;51.984;21.208;2023-12-20T01:46:47;99389.94;;;4.99;100.00
30949;BME280;17637;51.984;21.208;2023-12-20T01:49:19;99370.03;;;5.01;100.00
30949;BME280;17637;51.984;21.208;2023-12-20T01:51:52;99396.94;;;5.09;100.00
30949;BME280;17637;51.984;21.208;2023-12-20T01:54:24;99348.38;;;4.90;100.00
30949;BME280;17637;51.984;21.208;2023-12-20T01:56:56;99370.16;;;5.12;100.00
30949;BME280;17637;51.984;21.208;2023-12-20T01:59:28;99372.34;;;5.18;100.00
30949;BME280;17637;51.984;21.208;2023-12-20T02:02:03;99380.47;;;5.12;100.00
30949;BME280;17637;51.984;21.208;2023-12-20T02:04:35;99361.41;;;5.15;100.00
30949;BME280;17637;51.984;21.208;2023-12-20T02:07:07;99357.06;;;5.02;100.00
30949;BME280;17637;51.984;21.208;2023-12-20T02:09:40;99350.06;;;5.04;100.00
30949;BME280;17637;51.984;21.208;2023-12-20T02:12:12;99371.22;;;5.22;100.00
30949;BME280;17637;51.984;21.208;2023-12-20T02:14:44;99374.16;;;5.31;100.00
30949;BME280;17637;51.984;21.208;2023-12-20T02:17:16;99352.44;;;5.20;100.00
30949;BME280;17637;51.984;21.208;2023-12-20T02:19:49;99345.53;;;5.08;100.00
30949;BME280;17637;51.984;21.208;2023-12-20T02:22:20;99361.41;;;5.15;100.00
30949;BME280;17637;51.984;21.208;2023-12-20T02:24:52;99331.44;;;5.14;100.00
30949;BME280;17637;51.984;21.208;2023-12-20T02:27:24;99358.81;;;5.02;100.00
30949;BME280;17637;51.984;21.208;2023-12-20T02:29:56;99353.59;;;5.16;100.00
30949;BME280;17637;51.984;21.208;2023-12-20T02:32:28;99355.56;;;5.25;100.00
30949;BME280;17637;51.984;21.208;2023-12-20T02:35:00;99344.22;;;5.15;100.00
30949;BME280;17637;51.984;21.208;2023-12-20T02:37:33;99373.81;;;5.22;100.00
30949;BME280;17637;51.984;21.208;2023-12-20T02:40:05;99366.69;;;5.26;100.00
30949;BME280;17637;51.984;21.208;2023-12-20T02:42:38;99356.91;;;5.18;100.00
30949;BME280;17637;51.984;21.208;2023-12-20T02:45:09;99351.47;;;5.36;100.00
30949;BME280;17637;51.984;21.208;2023-12-20T02:47:41;99347.66;;;5.41;100.00
30949;BME280;17637;51.984;21.208;2023-12-20T02:50:14;99349.94;;;5.33;100.00
30949;BME280;17637;51.984;21.208;2023-12-20T02:52:46;99318.13;;;5.07;100.00
30949;BME280;17637;51.984;21.208;2023-12-20T02:55:18;99340.31;;;5.22;100.00
30949;BME280;17637;51.984;21.208;2023-12-20T02:57:50;99311.97;;;5.09;100.00
30949;BME280;17637;51.984;21.208;2023-12-20T03:00:21;99342.09;;;5.35;100.00
30949;BME280;17637;51.984;21.208;2023-12-20T03:02:53;99339.50;;;5.35;100.00
30949;BME280;17637;51.984;21.208;2023-12-20T03:05:25;99338.06;;;5.31;100.00
30949;BME280;17637;51.984;21.208;2023-12-20T03:07:57;99332.34;;;5.13;100.00
30949;BME280;17637;51.984;21.208;2023-12-20T03:10:29;99334.63;;;5.17;100.00
30949;BME280;17637;51.984;21.208;2023-12-20T03:13:01;99340.44;;;5.34;100.00
30949;BME280;17637;51.984;21.208;2023-12-20T03:15:33;99330.13;;;5.21;100.00
30949;BME280;17637;51.984;21.208;2023-12-20T03:18:04;99299.72;;;5.13;100.00
30949;BME280;17637;51.984;21.208;2023-12-20T03:20:36;99329.41;;;5.32;100.00
30949;BME280;17637;51.984;21.208;2023-12-20T03:23:08;99299.31;;;5.06;100.00
30949;BME280;17637;51.984;21.208;2023-12-20T03:25:40;99337.84;;;5.34;100.00
30949;BME280;17637;51.984;21.208;2023-12-20T03:28:14;99328.69;;;5.30;100.00
30949;BME280;17637;51.984;21.208;2023-12-20T03:30:47;99333.09;;;5.28;100.00
30949;BME280;17637;51.984;21.208;2023-12-20T03:33:18;99332.38;;;5.25;100.00
30949;BME280;17637;51.984;21.208;2023-12-20T03:35:50;99330.53;;;5.28;100.00
30949;BME280;17637;51.984;21.208;2023-12-20T03:38:22;99302.59;;;5.21;100.00
30949;BME280;17637;51.984;21.208;2023-12-20T03:40:57;99329.50;;;5.30;100.00
30949;BME280;17637;51.984;21.208;2023-12-20T03:43:29;99321.66;;;5.32;100.00
30949;BME280;17637;51.984;21.208;2023-12-20T03:46:00;99298.28;;;5.22;100.00
30949;BME280;17637;51.984;21.208;2023-12-20T03:48:35;99312.09;;;5.21;100.00
30949;BME280;17637;51.984;21.208;2023-12-20T03:51:07;99316.50;;;5.45;100.00
30949;BME280;17637;51.984;21.208;2023-12-20T03:53:39;99278.59;;;5.21;100.00
30949;BME280;17637;51.984;21.208;2023-12-20T03:56:12;99311.56;;;5.29;100.00
30949;BME280;17637;51.984;21.208;2023-12-20T03:58:44;99319.09;;;5.32;100.00
30949;BME280;17637;51.984;21.208;2023-12-20T04:01:15;99299.50;;;5.16;100.00
30949;BME280;17637;51.984;21.208;2023-12-20T04:03:47;99323.72;;;5.39;100.00
30949;BME280;17637;51.984;21.208;2023-12-20T04:06:19;99312.38;;;5.29;100.00
30949;BME280;17637;51.984;21.208;2023-12-20T04:08:51;99297.56;;;5.20;100.00
30949;BME280;17637;51.984;21.208;2023-12-20T04:11:23;99302.00;;;5.31;100.00
30949;BME280;17637;51.984;21.208;2023-12-20T04:13:55;99318.56;;;5.39;100.00
30949;BME280;17637;51.984;21.208;2023-12-20T04:16:27;99297.25;;;5.24;100.00
30949;BME280;17637;51.984;21.208;2023-12-20T04:18:59;99327.03;;;5.29;100.00
30949;BME280;17637;51.984;21.208;2023-12-20T04:21:31;99281.97;;;5.08;100.00
30949;BME280;17637;51.984;21.208;2023-12-20T04:24:03;99290.72;;;5.06;100.00
30949;BME280;17637;51.984;21.208;2023-12-20T04:26:34;99313.00;;;5.33;100.00
30949;BME280;17637;51.984;21.208;2023-12-20T04:29:06;99322.41;;;5.34;100.00
30949;BME280;17637;51.984;21.208;2023-12-20T04:31:38;99316.00;;;5.26;100.00
30949;BME280;17637;51.984;21.208;2023-12-20T04:34:10;99284.03;;;5.03;100.00
30949;BME280;17637;51.984;21.208;2023-12-20T04:36:42;99309.00;;;5.29;100.00
30949;BME280;17637;51.984;21.208;2023-12-20T04:39:14;99284.88;;;5.04;100.00
30949;BME280;17637;51.984;21.208;2023-12-20T04:41:49;99313.81;;;5.20;100.00
30949;BME280;17637;51.984;21.208;2023-12-20T04:44:21;99276.94;;;5.07;100.00
30949;BME280;17637;51.984;21.208;2023-12-20T04:46:53;99293.81;;;5.11;100.00
30949;BME280;17637;51.984;21.208;2023-12-20T04:49:25;99293.22;;;5.20;100.00
30949;BME280;17637;51.984;21.208;2023-12-20T04:51:57;99277.03;;;5.05;100.00
30949;BME280;17637;51.984;21.208;2023-12-20T04:54:29;99279.28;;;5.10;100.00
30949;BME280;17637;51.984;21.208;2023-12-20T04:57:01;99325.09;;;5.32;100.00
30949;BME280;17637;51.984;21.208;2023-12-20T04:59:33;99282.91;;;5.07;100.00
30949;BME280;17637;51.984;21.208;2023-12-20T05:02:04;99305.78;;;5.25;100.00
30949;BME280;17637;51.984;21.208;2023-12-20T05:04:36;99275.00;;;5.11;100.00
30949;BME280;17637;51.984;21.208;2023-12-20T05:07:08;99269.09;;;5.08;100.00
30949;BME280;17637;51.984;21.208;2023-12-20T05:09:40;99265.38;;;5.13;100.00
30949;BME280;17637;51.984;21.208;2023-12-20T05:12:13;99264.47;;;5.14;100.00
30949;BME280;17637;51.984;21.208;2023-12-20T05:14:44;99295.91;;;5.32;100.00
30949;BME280;17637;51.984;21.208;2023-12-20T05:17:16;99289.81;;;5.20;100.00
30949;BME280;17637;51.984;21.208;2023-12-20T05:19:48;99275.63;;;5.14;100.00
30949;BME280;17637;51.984;21.208;2023-12-20T05:22:20;99302.69;;;5.20;100.00
30949;BME280;17637;51.984;21.208;2023-12-20T05:24:52;99296.41;;;5.24;100.00
30949;BME280;17637;51.984;21.208;2023-12-20T05:27:24;99285.31;;;5.23;100.00
30949;BME280;17637;51.984;21.208;2023-12-20T05:29:55;99239.84;;;4.84;100.00
30949;BME280;17637;51.984;21.208;2023-12-20T05:32:29;99293.03;;;5.23;100.00
30949;BME280;17637;51.984;21.208;2023-12-20T05:35:01;99272.00;;;5.04;100.00
30949;BME280;17637;51.984;21.208;2023-12-20T05:37:33;99282.19;;;5.18;100.00
30949;BME280;17637;51.984;21.208;2023-12-20T05:40:05;99270.88;;;5.08;100.00
30949;BME280;17637;51.984;21.208;2023-12-20T05:42:37;99285.69;;;5.17;100.00
30949;BME280;17637;51.984;21.208;2023-12-20T05:45:09;99283.63;;;5.09;100.00
30949;BME280;17637;51.984;21.208;2023-12-20T05:47:42;99259.66;;;5.09;100.00
30949;BME280;17637;51.984;21.208;2023-12-20T05:50:14;99265.59;;;5.09;100.00
30949;BME280;17637;51.984;21.208;2023-12-20T05:52:46;99276.66;;;5.12;100.00
30949;BME280;17637;51.984;21.208;2023-12-20T05:55:18;99263.00;;;4.97;100.00
30949;BME280;17637;51.984;21.208;2023-12-20T05:57:50;99250.25;;;4.95;100.00
30949;BME280;17637;51.984;21.208;2023-12-20T06:00:22;99266.13;;;5.02;100.00
30949;BME280;17637;51.984;21.208;2023-12-20T06:02:54;99292.38;;;5.07;100.00
30949;BME280;17637;51.984;21.208;2023-12-20T06:05:26;99283.63;;;5.09;100.00
30949;BME280;17637;51.984;21.208;2023-12-20T06:07:58;99273.72;;;5.03;100.00
30949;BME280;17637;51.984;21.208;2023-12-20T06:10:33;99267.56;;;5.06;100.00
30949;BME280;17637;51.984;21.208;2023-12-20T06:13:04;99280.56;;;5.17;100.00
30949;BME280;17637;51.984;21.208;2023-12-20T06:15:38;99260.56;;;5.08;100.00
30949;BME280;17637;51.984;21.208;2023-12-20T06:18:10;99277.06;;;5.18;100.00
30949;BME280;17637;51.984;21.208;2023-12-20T06:20:42;99269.22;;;5.07;100.00
30949;BME280;17637;51.984;21.208;2023-12-20T06:23:14;99244.88;;;4.98;100.00
30949;BME280;17637;51.984;21.208;2023-12-20T06:25:46;99253.34;;;5.00;100.00
30949;BME280;17637;51.984;21.208;2023-12-20T06:28:17;99294.97;;;5.20;100.00
30949;BME280;17637;51.984;21.208;2023-12-20T06:30:49;99272.41;;;5.11;100.00
30949;BME280;17637;51.984;21.208;2023-12-20T06:33:24;99285.81;;;5.16;100.00
30949;BME280;17637;51.984;21.208;2023-12-20T06:35:56;99294.47;;;5.28;100.00
30949;BME280;17637;51.984;21.208;2023-12-20T06:38:28;99259.31;;;5.01;100.00
30949;BME280;17637;51.984;21.208;2023-12-20T06:41:00;99288.16;;;5.19;100.00
30949;BME280;17637;51.984;21.208;2023-12-20T06:43:32;99300.88;;;5.22;100.00
30949;BME280;17637;51.984;21.208;2023-12-20T06:46:19;99254.16;;;4.88;100.00
30949;BME280;17637;51.984;21.208;2023-12-20T06:48:51;99272.53;;;5.09;100.00
30949;BME280;17637;51.984;21.208;2023-12-20T06:51:23;99285.31;;;5.23;100.00
30949;BME280;17637;51.984;21.208;2023-12-20T06:53:57;99284.78;;;5.18;100.00
30949;BME280;17637;51.984;21.208;2023-12-20T06:56:29;99276.53;;;5.13;100.00
30949;BME280;17637;51.984;21.208;2023-12-20T06:59:01;99293.84;;;5.24;100.00
30949;BME280;17637;51.984;21.208;2023-12-20T07:01:32;99288.56;;;5.25;100.00
30949;BME280;17637;51.984;21.208;2023-12-20T07:04:04;99249.75;;;5.03;100.00
30949;BME280;17637;51.984;21.208;2023-12-20T07:06:36;99283.41;;;5.13;100.00
30949;BME280;17637;51.984;21.208;2023-12-20T07:09:08;99272.00;;;5.17;100.00
30949;BME280;17637;51.984;21.208;2023-12-20T07:11:40;99279.00;;;5.28;100.00
30949;BME280;17637;51.984;21.208;2023-12-20T07:14:12;99288.28;;;5.30;100.00
30949;BME280;17637;51.984;21.208;2023-12-20T07:16:43;99258.28;;;5.16;100.00
30949;BME280;17637;51.984;21.208;2023-12-20T07:19:15;99266.53;;;5.08;100.00
30949;BME280;17637;51.984;21.208;2023-12-20T07:21:47;99269.44;;;5.17;100.00
30949;BME280;17637;51.984;21.208;2023-12-20T07:24:19;99293.66;;;5.27;100.00
30949;BME280;17637;51.984;21.208;2023-12-20T07:26:51;99285.69;;;5.17;100.00
30949;BME280;17637;51.984;21.208;2023-12-20T07:29:23;99270.13;;;5.19;100.00
30949;BME280;17637;51.984;21.208;2023-12-20T07:31:55;99291.38;;;5.35;100.00
30949;BME280;17637;51.984;21.208;2023-12-20T07:34:27;99272.13;;;5.28;100.00
30949;BME280;17637;51.984;21.208;2023-12-20T07:36:59;99289.72;;;5.34;100.00
30949;BME280;17637;51.984;21.208;2023-12-20T07:39:31;99283.03;;;5.32;100.00
30949;BME280;17637;51.984;21.208;2023-12-20T07:42:03;99269.00;;;5.23;100.00
30949;BME280;17637;51.984;21.208;2023-12-20T07:44:35;99262.22;;;5.22;100.00
30949;BME280;17637;51.984;21.208;2023-12-20T07:47:09;99287.25;;;5.20;100.00
30949;BME280;17637;51.984;21.208;2023-12-20T07:49:41;99278.59;;;5.21;100.00
30949;BME280;17637;51.984;21.208;2023-12-20T07:52:13;99296.75;;;5.32;100.00
30949;BME280;17637;51.984;21.208;2023-12-20T07:54:45;99283.75;;;5.08;100.00
30949;BME280;17637;51.984;21.208;2023-12-20T07:57:17;99284.44;;;5.23;100.00
30949;BME280;17637;51.984;21.208;2023-12-20T07:59:49;99293.53;;;5.16;100.00
30949;BME280;17637;51.984;21.208;2023-12-20T08:02:21;99289.94;;;5.18;100.00
30949;BME280;17637;51.984;21.208;2023-12-20T08:04:53;99260.03;;;5.03;100.00
30949;BME280;17637;51.984;21.208;2023-12-20T08:07:25;99295.78;;;5.20;100.00
30949;BME280;17637;51.984;21.208;2023-12-20T08:09:57;99280.94;;;5.11;100.00
30949;BME280;17637;51.984;21.208;2023-12-20T08:12:29;99302.59;;;5.21;100.00
30949;BME280;17637;51.984;21.208;2023-12-20T08:15:01;99288.69;;;5.11;100.00
30949;BME280;17637;51.984;21.208;2023-12-20T08:17:33;99284.44;;;5.10;100.00
30949;BME280;17637;51.984;21.208;2023-12-20T08:20:05;99285.47;;;5.20;100.00
30949;BME280;17637;51.984;21.208;2023-12-20T08:22:38;99304.66;;;5.29;100.00
30949;BME280;17637;51.984;21.208;2023-12-20T08:25:09;99289.19;;;5.16;100.00
30949;BME280;17637;51.984;21.208;2023-12-20T08:27:41;99282.59;;;5.12;100.00
30949;BME280;17637;51.984;21.208;2023-12-20T08:30:14;99282.44;;;5.28;100.00
30949;BME280;17637;51.984;21.208;2023-12-20T08:32:45;99296.63;;;5.34;100.00
30949;BME280;17637;51.984;21.208;2023-12-20T08:35:17;99296.00;;;5.30;100.00
30949;BME280;17637;51.984;21.208;2023-12-20T08:37:50;99311.19;;;5.35;100.00
30949;BME280;17637;51.984;21.208;2023-12-20T08:40:22;99298.06;;;5.38;100.00
30949;BME280;17637;51.984;21.208;2023-12-20T08:42:55;99293.25;;;5.33;100.00
30949;BME280;17637;51.984;21.208;2023-12-20T08:45:27;99300.03;;;5.21;100.00
30949;BME280;17637;51.984;21.208;2023-12-20T08:47:59;99298.28;;;5.35;100.00
30949;BME280;17637;51.984;21.208;2023-12-20T08:50:34;99285.38;;;4.96;100.00
30949;BME280;17637;51.984;21.208;2023-12-20T08:53:06;99303.72;;;5.17;100.00
30949;BME280;17637;51.984;21.208;2023-12-20T08:55:38;99290.63;;;5.20;100.00
30949;BME280;17637;51.984;21.208;2023-12-20T08:58:10;99292.81;;;5.26;100.00
30949;BME280;17637;51.984;21.208;2023-12-20T09:00:42;99271.56;;;5.23;100.00
30949;BME280;17637;51.984;21.208;2023-12-20T09:03:14;99286.22;;;5.35;100.00
30949;BME280;17637;51.984;21.208;2023-12-20T09:05:46;99289.00;;;5.32;100.00
30949;BME280;17637;51.984;21.208;2023-12-20T09:08:17;99281.28;;;5.32;100.00
30949;BME280;17637;51.984;21.208;2023-12-20T09:10:49;99286.84;;;5.39;100.00
30949;BME280;17637;51.984;21.208;2023-12-20T09:13:21;99256.34;;;5.20;100.00
30949;BME280;17637;51.984;21.208;2023-12-20T09:15:58;99281.47;;;5.42;100.00
30949;BME280;17637;51.984;21.208;2023-12-20T09:18:30;99269.00;;;5.23;100.00
30949;BME280;17637;51.984;21.208;2023-12-20T09:21:02;99264.47;;;5.26;100.00
30949;BME280;17637;51.984;21.208;2023-12-20T09:23:34;99231.72;;;5.03;100.00
30949;BME280;17637;51.984;21.208;2023-12-20T09:26:05;99252.84;;;5.21;100.00
30949;BME280;17637;51.984;21.208;2023-12-20T09:28:37;99257.59;;;5.27;100.00
30949;BME280;17637;51.984;21.208;2023-12-20T09:31:10;99261.72;;;5.30;100.00
30949;BME280;17637;51.984;21.208;2023-12-20T09:33:42;99242.44;;;5.22;100.00
30949;BME280;17637;51.984;21.208;2023-12-20T09:36:15;99245.63;;;5.39;100.00
30949;BME280;17637;51.984;21.208;2023-12-20T09:38:46;99231.31;;;5.22;100.00
30949;BME280;17637;51.984;21.208;2023-12-20T09:41:18;99253.66;;;5.34;100.00
30949;BME280;17637;51.984;21.208;2023-12-20T09:43:51;99239.44;;;5.16;100.00
30949;BME280;17637;51.984;21.208;2023-12-20T09:46:26;99243.34;;;5.21;100.00
30949;BME280;17637;51.984;21.208;2023-12-20T09:49:01;99229.78;;;5.19;100.00
30949;BME280;17637;51.984;21.208;2023-12-20T09:51:34;99230.59;;;5.07;100.00
30949;BME280;17637;51.984;21.208;2023-12-20T09:54:06;99239.22;;;5.19;100.00
30949;BME280;17637;51.984;21.208;2023-12-20T09:56:38;99240.19;;;5.31;100.00
30949;BME280;17637;51.984;21.208;2023-12-20T09:59:10;99234.69;;;5.22;100.00
30949;BME280;17637;51.984;21.208;2023-12-20T10:01:43;99222.03;;;5.19;100.00
30949;BME280;17637;51.984;21.208;2023-12-20T10:04:15;99219.25;;;5.09;100.00
30949;BME280;17637;51.984;21.208;2023-12-20T10:07:02;99232.84;;;5.24;100.00
30949;BME280;17637;51.984;21.208;2023-12-20T10:09:38;99242.84;;;5.29;100.00
30949;BME280;17637;51.984;21.208;2023-12-20T10:12:10;99223.06;;;5.30;100.00
30949;BME280;17637;51.984;21.208;2023-12-20T10:14:41;99225.13;;;5.12;100.00
30949;BME280;17637;51.984;21.208;2023-12-20T10:17:13;99209.16;;;5.19;100.00
30949;BME280;17637;51.984;21.208;2023-12-20T10:19:45;99216.44;;;5.25;100.00
30949;BME280;17637;51.984;21.208;2023-12-20T10:22:17;99213.38;;;5.20;100.00
30949;BME280;17637;51.984;21.208;2023-12-20T10:24:49;99212.56;;;5.20;100.00
30949;BME280;17637;51.984;21.208;2023-12-20T10:27:21;99193.78;;;5.05;100.00
30949;BME280;17637;51.984;21.208;2023-12-20T10:29:53;99207.63;;;5.17;100.00
30949;BME280;17637;51.984;21.208;2023-12-20T10:32:26;99195.34;;;5.20;100.00
30949;BME280;17637;51.984;21.208;2023-12-20T10:34:58;99188.03;;;5.14;100.00
30949;BME280;17637;51.984;21.208;2023-12-20T10:37:31;99216.03;;;5.32;100.00
30949;BME280;17637;51.984;21.208;2023-12-20T10:40:04;99187.09;;;5.15;100.00
30949;BME280;17637;51.984;21.208;2023-12-20T10:42:38;99169.06;;;5.15;100.00
30949;BME280;17637;51.984;21.208;2023-12-20T10:45:12;99210.69;;;5.35;100.00
30949;BME280;17637;51.984;21.208;2023-12-20T10:47:48;99166.50;;;5.28;100.00
30949;BME280;17637;51.984;21.208;2023-12-20T10:50:21;99210.47;;;5.25;100.00
30949;BME280;17637;51.984;21.208;2023-12-20T10:52:54;99210.28;;;5.41;100.00
30949;BME280;17637;51.984;21.208;2023-12-20T10:55:27;99188.34;;;5.22;100.00
30949;BME280;17637;51.984;21.208;2023-12-20T10:58:01;99207.69;;;5.41;100.00
30949;BME280;17637;51.984;21.208;2023-12-20T11:00:38;99192.75;;;5.07;100.00
30949;BME280;17637;51.984;21.208;2023-12-20T11:03:12;99205.84;;;5.30;100.00
30949;BME280;17637;51.984;21.208;2023-12-20T11:05:59;99200.06;;;5.26;100.00
30949;BME280;17637;51.984;21.208;2023-12-20T11:09:38;99189.47;;;5.18;100.00
30949;BME280;17637;51.984;21.208;2023-12-20T11:12:09;99191.03;;;5.21;100.00
30949;BME280;17637;51.984;21.208;2023-12-20T11:14:46;99184.63;;;5.26;100.00
30949;BME280;17637;51.984;21.208;2023-12-20T11:17:18;99161.97;;;5.19;100.00
30949;BME280;17637;51.984;21.208;2023-12-20T11:22:32;99155.69;;;5.10;100.00
30949;BME280;17637;51.984;21.208;2023-12-20T11:25:10;99155.16;;;5.18;100.00
30949;BME280;17637;51.984;21.208;2023-12-20T11:27:43;99180.56;;;5.48;100.00
30949;BME280;17637;51.984;21.208;2023-12-20T11:30:17;99172.56;;;5.40;100.00
30949;BME280;17637;51.984;21.208;2023-12-20T11:32:49;99165.22;;;5.47;100.00
30949;BME280;17637;51.984;21.208;2023-12-20T11:35:21;99162.66;;;5.34;100.00
30949;BME280;17637;51.984;21.208;2023-12-20T11:37:57;99130.94;;;5.33;100.00
30949;BME280;17637;51.984;21.208;2023-12-20T11:40:33;99129.72;;;5.26;100.00
30949;BME280;17637;51.984;21.208;2023-12-20T11:43:05;99161.41;;;5.39;100.00
30949;BME280;17637;51.984;21.208;2023-12-20T11:45:37;99132.88;;;5.42;100.00
30949;BME280;17637;51.984;21.208;2023-12-20T11:48:10;99148.22;;;5.44;100.00
30949;BME280;17637;51.984;21.208;2023-12-20T11:50:42;99104.91;;;5.12;100.00
30949;BME280;17637;51.984;21.208;2023-12-20T11:53:14;99121.34;;;5.35;100.00
30949;BME280;17637;51.984;21.208;2023-12-20T11:55:48;99110.34;;;5.20;100.00
30949;BME280;17637;51.984;21.208;2023-12-20T11:58:20;99121.34;;;5.35;100.00
30949;BME280;17637;51.984;21.208;2023-12-20T12:00:52;99138.66;;;5.33;100.00
30949;BME280;17637;51.984;21.208;2023-12-20T12:03:24;99130.75;;;5.23;100.00
30949;BME280;17637;51.984;21.208;2023-12-20T12:05:56;99115.13;;;5.01;100.00
30949;BME280;17637;51.984;21.208;2023-12-20T12:08:28;99133.44;;;5.09;100.00
30949;BME280;17637;51.984;21.208;2023-12-20T12:11:00;99113.16;;;5.04;100.00
30949;BME280;17637;51.984;21.208;2023-12-20T12:13:32;99123.66;;;5.14;100.00
30949;BME280;17637;51.984;21.208;2023-12-20T12:16:04;99103.50;;;4.95;100.00
30949;BME280;17637;51.984;21.208;2023-12-20T12:18:36;99109.75;;;5.17;100.00
30949;BME280;17637;51.984;21.208;2023-12-20T12:21:08;99098.97;;;4.99;100.00
30949;BME280;17637;51.984;21.208;2023-12-20T12:23:49;99111.09;;;4.97;100.00
30949;BME280;17637;51.984;21.208;2023-12-20T12:26:20;99107.22;;;4.91;100.00
30949;BME280;17637;51.984;21.208;2023-12-20T12:28:56;99092.78;;;4.63;100.00
30949;BME280;17637;51.984;21.208;2023-12-20T12:31:28;99113.06;;;4.80;100.00
30949;BME280;17637;51.984;21.208;2023-12-20T12:34:01;99117.19;;;4.83;100.00
30949;BME280;17637;51.984;21.208;2023-12-20T12:36:33;99101.03;;;4.68;100.00
30949;BME280;17637;51.984;21.208;2023-12-20T12:39:05;99120.56;;;4.83;100.00
30949;BME280;17637;51.984;21.208;2023-12-20T12:41:36;99118.00;;;4.70;100.00
30949;BME280;17637;51.984;21.208;2023-12-20T12:44:08;99117.09;;;4.58;100.00
30949;BME280;17637;51.984;21.208;2023-12-20T12:46:48;99113.06;;;4.54;100.00
30949;BME280;17637;51.984;21.208;2023-12-20T12:49:22;99105.06;;;4.59;100.00
30949;BME280;17637;51.984;21.208;2023-12-20T12:51:54;99092.19;;;4.59;100.00
30949;BME280;17637;51.984;21.208;2023-12-20T12:54:30;99096.09;;;4.65;100.00
30949;BME280;17637;51.984;21.208;2023-12-20T12:57:01;99103.28;;;4.59;100.00
30949;BME280;17637;51.984;21.208;2023-12-20T12:59:33;99081.69;;;4.62;100.00
30949;BME280;17637;51.984;21.208;2023-12-20T13:02:10;99093.81;;;4.60;100.00
30949;BME280;17637;51.984;21.208;2023-12-20T13:04:42;99098.44;;;4.55;100.00
30949;BME280;17637;51.984;21.208;2023-12-20T13:07:15;99106.50;;;4.63;100.00
30949;BME280;17637;51.984;21.208;2023-12-20T13:09:46;99081.69;;;4.36;100.00
30949;BME280;17637;51.984;21.208;2023-12-20T13:12:18;99093.63;;;4.50;100.00
30949;BME280;17637;51.984;21.208;2023-12-20T13:14:50;99087.31;;;4.29;100.00
30949;BME280;17637;51.984;21.208;2023-12-20T13:17:22;99104.63;;;4.39;100.00
30949;BME280;17637;51.984;21.208;2023-12-20T13:19:54;99110.41;;;4.56;100.00